sensor_id;sensor_type;location;lat;lon;timestamp;P1;durP1;ratioP1;P2;durP2;ratioP2
7929;SDS011;4010;42.698;23.124;2022-09-13T00:01:10;2.50;;;2.30;;
7929;SDS011;4010;42.698;23.124;2022-09-13T00:03:38;2.43;;;2.23;;
7929;SDS011;4010;42.698;23.124;2022-09-13T00:06:06;2.27;;;2.07;;
7929;SDS011;4010;42.698;23.124;2022-09-13T00:08:34;2.27;;;2.07;;
7929;SDS011;4010;42.698;23.124;2022-09-13T00:11:01;2.93;;;2.67;;
7929;SDS011;4010;42.698;23.124;2022-09-13T00:13:27;2.40;;;2.03;;
7929;SDS011;4010;42.698;23.124;2022-09-13T00:15:54;2.30;;;2.07;;
7929;SDS011;4010;42.698;23.124;2022-09-13T00:18:22;2.00;;;1.70;;
7929;SDS011;4010;42.698;23.124;2022-09-13T00:20:50;2.23;;;2.07;;
7929;SDS011;4010;42.698;23.124;2022-09-13T00:23:17;2.70;;;2.10;;
7929;SDS011;4010;42.698;23.124;2022-09-13T00:25:44;2.53;;;2.33;;
7929;SDS011;4010;42.698;23.124;2022-09-13T00:28:10;2.23;;;2.07;;
7929;SDS011;4010;42.698;23.124;2022-09-13T00:30:37;3.40;;;2.40;;
7929;SDS011;4010;42.698;23.124;2022-09-13T00:33:04;4.17;;;2.10;;
7929;SDS011;4010;42.698;23.124;2022-09-13T00:35:31;6.80;;;2.13;;
7929;SDS011;4010;42.698;23.124;2022-09-13T00:37:59;2.37;;;1.90;;
7929;SDS011;4010;42.698;23.124;2022-09-13T00:40:27;2.87;;;2.60;;
7929;SDS011;4010;42.698;23.124;2022-09-13T00:42:54;3.97;;;2.27;;
7929;SDS011;4010;42.698;23.124;2022-09-13T00:45:21;3.13;;;2.60;;
7929;SDS011;4010;42.698;23.124;2022-09-13T00:47:48;2.33;;;2.00;;
7929;SDS011;4010;42.698;23.124;2022-09-13T00:50:22;2.90;;;2.03;;
7929;SDS011;4010;42.698;23.124;2022-09-13T00:52:54;2.97;;;2.40;;
7929;SDS011;4010;42.698;23.124;2022-09-13T00:55:28;2.60;;;2.40;;
7929;SDS011;4010;42.698;23.124;2022-09-13T00:58:01;2.73;;;2.20;;
7929;SDS011;4010;42.698;23.124;2022-09-13T01:00:31;2.70;;;2.30;;
7929;SDS011;4010;42.698;23.124;2022-09-13T01:02:59;2.07;;;1.87;;
7929;SDS011;4010;42.698;23.124;2022-09-13T01:05:31;2.03;;;1.83;;
7929;SDS011;4010;42.698;23.124;2022-09-13T01:08:01;2.73;;;1.80;;
7929;SDS011;4010;42.698;23.124;2022-09-13T01:10:41;2.00;;;1.80;;
7929;SDS011;4010;42.698;23.124;2022-09-13T01:13:10;2.07;;;1.87;;
7929;SDS011;4010;42.698;23.124;2022-09-13T01:15:41;2.53;;;2.33;;
7929;SDS011;4010;42.698;23.124;2022-09-13T01:18:09;1.80;;;1.67;;
7929;SDS011;4010;42.698;23.124;2022-09-13T01:20:39;2.37;;;2.17;;
7929;SDS011;4010;42.698;23.124;2022-09-13T01:23:28;2.07;;;1.87;;
7929;SDS011;4010;42.698;23.124;2022-09-13T01:29:28;2.03;;;1.83;;
7929;SDS011;4010;42.698;23.124;2022-09-13T01:32:28;1.70;;;1.60;;
7929;SDS011;4010;42.698;23.124;2022-09-13T01:35:09;2.33;;;2.00;;
7929;SDS011;4010;42.698;23.124;2022-09-13T01:37:49;2.83;;;2.20;;
7929;SDS011;4010;42.698;23.124;2022-09-13T01:40:24;2.57;;;2.10;;
7929;SDS011;4010;42.698;23.124;2022-09-13T01:43:08;2.23;;;2.03;;
7929;SDS011;4010;42.698;23.124;2022-09-13T01:45:46;2.03;;;1.93;;
7929;SDS011;4010;42.698;23.124;2022-09-13T01:48:24;2.20;;;2.00;;
7929;SDS011;4010;42.698;23.124;2022-09-13T01:51:00;2.37;;;2.10;;
7929;SDS011;4010;42.698;23.124;2022-09-13T01:53:33;5.50;;;2.20;;
7929;SDS011;4010;42.698;23.124;2022-09-13T01:56:08;2.20;;;1.90;;
7929;SDS011;4010;42.698;23.124;2022-09-13T01:58:44;2.43;;;2.13;;
7929;SDS011;4010;42.698;23.124;2022-09-13T02:01:16;2.57;;;1.87;;
7929;SDS011;4010;42.698;23.124;2022-09-13T02:03:50;3.47;;;2.50;;
7929;SDS011;4010;42.698;23.124;2022-09-13T02:06:21;3.63;;;2.40;;
7929;SDS011;4010;42.698;23.124;2022-09-13T02:08:52;3.37;;;2.50;;
7929;SDS011;4010;42.698;23.124;2022-09-13T02:11:22;2.23;;;2.03;;
7929;SDS011;4010;42.698;23.124;2022-09-13T02:13:50;2.47;;;2.20;;
7929;SDS011;4010;42.698;23.124;2022-09-13T02:16:25;1.90;;;1.67;;
7929;SDS011;4010;42.698;23.124;2022-09-13T02:18:57;1.77;;;1.67;;
7929;SDS011;4010;42.698;23.124;2022-09-13T02:21:28;2.93;;;2.30;;
7929;SDS011;4010;42.698;23.124;2022-09-13T02:23:59;2.07;;;1.90;;
7929;SDS011;4010;42.698;23.124;2022-09-13T02:26:28;2.20;;;1.73;;
7929;SDS011;4010;42.698;23.124;2022-09-13T02:28:58;2.40;;;2.20;;
7929;SDS011;4010;42.698;23.124;2022-09-13T02:31:32;2.90;;;2.20;;
7929;SDS011;4010;42.698;23.124;2022-09-13T02:34:03;2.23;;;2.03;;
7929;SDS011;4010;42.698;23.124;2022-09-13T02:36:37;2.27;;;2.07;;
7929;SDS011;4010;42.698;23.124;2022-09-13T02:39:06;2.33;;;1.93;;
7929;SDS011;4010;42.698;23.124;2022-09-13T02:41:40;2.27;;;1.60;;
7929;SDS011;4010;42.698;23.124;2022-09-13T02:44:12;1.90;;;1.80;;
7929;SDS011;4010;42.698;23.124;2022-09-13T02:46:52;2.87;;;2.17;;
7929;SDS011;4010;42.698;23.124;2022-09-13T02:49:32;2.70;;;2.33;;
7929;SDS011;4010;42.698;23.124;2022-09-13T02:52:08;2.40;;;1.70;;
7929;SDS011;4010;42.698;23.124;2022-09-13T02:54:46;2.77;;;2.13;;
7929;SDS011;4010;42.698;23.124;2022-09-13T02:57:19;2.60;;;2.40;;
7929;SDS011;4010;42.698;23.124;2022-09-13T02:59:56;3.30;;;2.33;;
7929;SDS011;4010;42.698;23.124;2022-09-13T03:02:24;2.23;;;1.83;;
7929;SDS011;4010;42.698;23.124;2022-09-13T03:04:55;2.73;;;1.67;;
7929;SDS011;4010;42.698;23.124;2022-09-13T03:07:23;2.33;;;2.13;;
7929;SDS011;4010;42.698;23.124;2022-09-13T03:09:50;2.03;;;1.87;;
7929;SDS011;4010;42.698;23.124;2022-09-13T03:12:23;2.43;;;2.20;;
7929;SDS011;4010;42.698;23.124;2022-09-13T03:15:01;2.40;;;2.03;;
7929;SDS011;4010;42.698;23.124;2022-09-13T03:17:41;2.23;;;1.90;;
7929;SDS011;4010;42.698;23.124;2022-09-13T03:20:22;2.10;;;1.90;;
7929;SDS011;4010;42.698;23.124;2022-09-13T03:26:13;1.67;;;1.57;;
7929;SDS011;4010;42.698;23.124;2022-09-13T03:28:52;3.00;;;2.03;;
7929;SDS011;4010;42.698;23.124;2022-09-13T03:31:27;2.60;;;2.40;;
7929;SDS011;4010;42.698;23.124;2022-09-13T03:34:00;2.30;;;2.10;;
7929;SDS011;4010;42.698;23.124;2022-09-13T03:36:36;2.60;;;1.90;;
7929;SDS011;4010;42.698;23.124;2022-09-13T03:39:10;1.50;;;1.40;;
7929;SDS011;4010;42.698;23.124;2022-09-13T03:41:44;2.13;;;1.97;;
7929;SDS011;4010;42.698;23.124;2022-09-13T03:44:16;1.60;;;1.50;;
7929;SDS011;4010;42.698;23.124;2022-09-13T03:46:47;2.53;;;1.90;;
7929;SDS011;4010;42.698;23.124;2022-09-13T03:49:17;2.67;;;1.90;;
7929;SDS011;4010;42.698;23.124;2022-09-13T03:51:49;2.33;;;2.10;;
7929;SDS011;4010;42.698;23.124;2022-09-13T03:54:18;1.73;;;1.63;;
7929;SDS011;4010;42.698;23.124;2022-09-13T03:57:06;1.90;;;1.63;;
7929;SDS011;4010;42.698;23.124;2022-09-13T03:59:35;1.57;;;1.47;;
7929;SDS011;4010;42.698;23.124;2022-09-13T04:02:03;1.47;;;1.37;;
7929;SDS011;4010;42.698;23.124;2022-09-13T04:04:30;1.47;;;1.37;;
7929;SDS011;4010;42.698;23.124;2022-09-13T04:06:58;2.43;;;1.80;;
7929;SDS011;4010;42.698;23.124;2022-09-13T04:09:27;1.77;;;1.67;;
7929;SDS011;4010;42.698;23.124;2022-09-13T04:11:54;2.07;;;1.67;;
7929;SDS011;4010;42.698;23.124;2022-09-13T04:14:21;1.90;;;1.70;;
7929;SDS011;4010;42.698;23.124;2022-09-13T04:16:50;2.27;;;2.07;;
7929;SDS011;4010;42.698;23.124;2022-09-13T04:19:17;2.60;;;1.87;;
7929;SDS011;4010;42.698;23.124;2022-09-13T04:21:45;2.67;;;2.13;;
7929;SDS011;4010;42.698;23.124;2022-09-13T04:24:14;1.50;;;1.30;;
7929;SDS011;4010;42.698;23.124;2022-09-13T04:26:41;3.23;;;2.10;;
7929;SDS011;4010;42.698;23.124;2022-09-13T04:29:08;2.50;;;2.17;;
7929;SDS011;4010;42.698;23.124;2022-09-13T04:31:35;2.33;;;1.97;;
7929;SDS011;4010;42.698;23.124;2022-09-13T04:34:02;3.13;;;2.23;;
7929;SDS011;4010;42.698;23.124;2022-09-13T04:36:30;2.97;;;2.33;;
7929;SDS011;4010;42.698;23.124;2022-09-13T04:38:57;2.13;;;1.93;;
7929;SDS011;4010;42.698;23.124;2022-09-13T04:41:26;2.30;;;2.10;;
7929;SDS011;4010;42.698;23.124;2022-09-13T04:43:53;3.70;;;2.63;;
7929;SDS011;4010;42.698;23.124;2022-09-13T04:46:19;4.30;;;2.97;;
7929;SDS011;4010;42.698;23.124;2022-09-13T04:48:47;4.60;;;3.10;;
7929;SDS011;4010;42.698;23.124;2022-09-13T04:51:15;4.00;;;2.90;;
7929;SDS011;4010;42.698;23.124;2022-09-13T04:53:42;2.70;;;2.50;;
7929;SDS011;4010;42.698;23.124;2022-09-13T04:56:09;1.70;;;1.60;;
7929;SDS011;4010;42.698;23.124;2022-09-13T04:58:39;1.50;;;1.40;;
7929;SDS011;4010;42.698;23.124;2022-09-13T05:01:06;1.63;;;1.53;;
7929;SDS011;4010;42.698;23.124;2022-09-13T05:03:35;1.83;;;1.60;;
7929;SDS011;4010;42.698;23.124;2022-09-13T05:06:02;1.83;;;1.70;;
7929;SDS011;4010;42.698;23.124;2022-09-13T05:08:29;1.70;;;1.60;;
7929;SDS011;4010;42.698;23.124;2022-09-13T05:10:56;1.70;;;1.57;;
7929;SDS011;4010;42.698;23.124;2022-09-13T05:13:23;1.63;;;1.53;;
7929;SDS011;4010;42.698;23.124;2022-09-13T05:15:54;1.50;;;1.40;;
7929;SDS011;4010;42.698;23.124;2022-09-13T05:18:21;1.50;;;1.40;;
7929;SDS011;4010;42.698;23.124;2022-09-13T05:20:52;1.87;;;1.30;;
7929;SDS011;4010;42.698;23.124;2022-09-13T05:23:19;1.40;;;1.30;;
7929;SDS011;4010;42.698;23.124;2022-09-13T05:25:51;1.63;;;1.53;;
7929;SDS011;4010;42.698;23.124;2022-09-13T05:28:18;2.00;;;1.67;;
7929;SDS011;4010;42.698;23.124;2022-09-13T05:30:52;1.77;;;1.50;;
7929;SDS011;4010;42.698;23.124;2022-09-13T05:33:21;1.60;;;1.50;;
7929;SDS011;4010;42.698;23.124;2022-09-13T05:35:48;1.70;;;1.60;;
7929;SDS011;4010;42.698;23.124;2022-09-13T05:38:15;1.37;;;1.27;;
7929;SDS011;4010;42.698;23.124;2022-09-13T05:40:42;1.77;;;1.50;;
7929;SDS011;4010;42.698;23.124;2022-09-13T05:43:09;1.40;;;1.30;;
7929;SDS011;4010;42.698;23.124;2022-09-13T05:45:36;4.50;;;1.80;;
7929;SDS011;4010;42.698;23.124;2022-09-13T05:48:04;1.80;;;1.60;;
7929;SDS011;4010;42.698;23.124;2022-09-13T05:50:31;1.50;;;1.40;;
7929;SDS011;4010;42.698;23.124;2022-09-13T05:53:02;1.60;;;1.50;;
7929;SDS011;4010;42.698;23.124;2022-09-13T05:55:29;1.87;;;1.50;;
7929;SDS011;4010;42.698;23.124;2022-09-13T05:57:56;2.20;;;1.57;;
7929;SDS011;4010;42.698;23.124;2022-09-13T06:00:22;1.47;;;1.37;;
7929;SDS011;4010;42.698;23.124;2022-09-13T06:02:49;1.80;;;1.63;;
7929;SDS011;4010;42.698;23.124;2022-09-13T06:05:17;1.30;;;1.20;;
7929;SDS011;4010;42.698;23.124;2022-09-13T06:07:44;1.33;;;1.23;;
7929;SDS011;4010;42.698;23.124;2022-09-13T06:10:10;1.63;;;1.53;;
7929;SDS011;4010;42.698;23.124;2022-09-13T06:12:37;1.63;;;1.53;;
7929;SDS011;4010;42.698;23.124;2022-09-13T06:15:04;3.40;;;2.00;;
7929;SDS011;4010;42.698;23.124;2022-09-13T06:17:32;1.63;;;1.53;;
7929;SDS011;4010;42.698;23.124;2022-09-13T06:19:58;2.77;;;1.60;;
7929;SDS011;4010;42.698;23.124;2022-09-13T06:22:26;1.53;;;1.43;;
7929;SDS011;4010;42.698;23.124;2022-09-13T06:24:57;1.40;;;1.30;;
7929;SDS011;4010;42.698;23.124;2022-09-13T06:27:24;1.87;;;1.50;;
7929;SDS011;4010;42.698;23.124;2022-09-13T06:29:50;1.60;;;1.50;;
7929;SDS011;4010;42.698;23.124;2022-09-13T06:32:17;1.67;;;1.57;;
7929;SDS011;4010;42.698;23.124;2022-09-13T06:34:44;2.97;;;1.70;;
7929;SDS011;4010;42.698;23.124;2022-09-13T06:37:11;1.40;;;1.30;;
7929;SDS011;4010;42.698;23.124;2022-09-13T06:39:39;1.90;;;1.40;;
7929;SDS011;4010;42.698;23.124;2022-09-13T06:42:07;1.77;;;1.67;;
7929;SDS011;4010;42.698;23.124;2022-09-13T06:44:33;3.00;;;1.40;;
7929;SDS011;4010;42.698;23.124;2022-09-13T06:47:00;1.40;;;1.30;;
7929;SDS011;4010;42.698;23.124;2022-09-13T06:49:27;1.60;;;1.50;;
7929;SDS011;4010;42.698;23.124;2022-09-13T06:51:55;1.43;;;1.33;;
7929;SDS011;4010;42.698;23.124;2022-09-13T06:54:22;1.60;;;1.50;;
7929;SDS011;4010;42.698;23.124;2022-09-13T06:56:50;1.80;;;1.70;;
7929;SDS011;4010;42.698;23.124;2022-09-13T06:59:17;1.37;;;1.27;;
7929;SDS011;4010;42.698;23.124;2022-09-13T07:01:43;2.23;;;1.60;;
7929;SDS011;4010;42.698;23.124;2022-09-13T07:04:11;1.60;;;1.50;;
7929;SDS011;4010;42.698;23.124;2022-09-13T07:06:40;1.50;;;1.40;;
7929;SDS011;4010;42.698;23.124;2022-09-13T07:09:10;1.60;;;1.50;;
7929;SDS011;4010;42.698;23.124;2022-09-13T07:11:39;1.40;;;1.30;;
7929;SDS011;4010;42.698;23.124;2022-09-13T07:14:10;1.30;;;1.20;;
7929;SDS011;4010;42.698;23.124;2022-09-13T07:16:39;2.80;;;1.60;;
7929;SDS011;4010;42.698;23.124;2022-09-13T07:19:06;1.17;;;1.07;;
7929;SDS011;4010;42.698;23.124;2022-09-13T07:21:38;1.53;;;1.43;;
7929;SDS011;4010;42.698;23.124;2022-09-13T07:24:05;1.80;;;1.40;;
7929;SDS011;4010;42.698;23.124;2022-09-13T07:26:32;1.17;;;1.07;;
7929;SDS011;4010;42.698;23.124;2022-09-13T07:28:59;1.70;;;1.20;;
7929;SDS011;4010;42.698;23.124;2022-09-13T07:31:29;1.17;;;1.13;;
7929;SDS011;4010;42.698;23.124;2022-09-13T07:33:58;1.57;;;1.47;;
7929;SDS011;4010;42.698;23.124;2022-09-13T07:36:26;1.13;;;1.03;;
7929;SDS011;4010;42.698;23.124;2022-09-13T07:38:54;1.20;;;1.10;;
7929;SDS011;4010;42.698;23.124;2022-09-13T07:41:22;1.40;;;1.30;;
7929;SDS011;4010;42.698;23.124;2022-09-13T07:43:50;1.47;;;1.20;;
7929;SDS011;4010;42.698;23.124;2022-09-13T07:46:18;2.10;;;1.37;;
7929;SDS011;4010;42.698;23.124;2022-09-13T07:48:47;1.77;;;1.20;;
7929;SDS011;4010;42.698;23.124;2022-09-13T07:51:15;1.30;;;1.20;;
7929;SDS011;4010;42.698;23.124;2022-09-13T07:53:44;1.00;;;1.00;;
7929;SDS011;4010;42.698;23.124;2022-09-13T07:56:12;1.10;;;1.00;;
7929;SDS011;4010;42.698;23.124;2022-09-13T07:58:40;1.70;;;1.60;;
7929;SDS011;4010;42.698;23.124;2022-09-13T08:01:09;1.43;;;1.33;;
7929;SDS011;4010;42.698;23.124;2022-09-13T08:03:38;1.33;;;1.23;;
7929;SDS011;4010;42.698;23.124;2022-09-13T08:06:07;1.50;;;1.40;;
7929;SDS011;4010;42.698;23.124;2022-09-13T08:08:34;2.10;;;1.90;;
7929;SDS011;4010;42.698;23.124;2022-09-13T08:11:02;1.07;;;0.97;;
7929;SDS011;4010;42.698;23.124;2022-09-13T08:13:30;1.60;;;1.50;;
7929;SDS011;4010;42.698;23.124;2022-09-13T08:15:59;0.90;;;0.90;;
7929;SDS011;4010;42.698;23.124;2022-09-13T08:18:27;1.47;;;1.37;;
7929;SDS011;4010;42.698;23.124;2022-09-13T08:20:54;1.50;;;1.40;;
7929;SDS011;4010;42.698;23.124;2022-09-13T08:23:24;1.57;;;1.47;;
7929;SDS011;4010;42.698;23.124;2022-09-13T08:25:52;1.47;;;1.17;;
7929;SDS011;4010;42.698;23.124;2022-09-13T08:28:20;1.30;;;1.20;;
7929;SDS011;4010;42.698;23.124;2022-09-13T08:30:47;1.00;;;1.00;;
7929;SDS011;4010;42.698;23.124;2022-09-13T08:33:14;1.17;;;1.03;;
7929;SDS011;4010;42.698;23.124;2022-09-13T08:35:49;1.10;;;1.10;;
7929;SDS011;4010;42.698;23.124;2022-09-13T08:38:16;1.27;;;1.17;;
7929;SDS011;4010;42.698;23.124;2022-09-13T08:40:47;1.43;;;1.33;;
7929;SDS011;4010;42.698;23.124;2022-09-13T08:43:19;1.37;;;1.27;;
7929;SDS011;4010;42.698;23.124;2022-09-13T08:45:54;1.20;;;1.10;;
7929;SDS011;4010;42.698;23.124;2022-09-13T08:48:27;0.90;;;0.90;;
7929;SDS011;4010;42.698;23.124;2022-09-13T08:51:00;1.20;;;1.10;;
7929;SDS011;4010;42.698;23.124;2022-09-13T08:53:32;1.27;;;1.17;;
7929;SDS011;4010;42.698;23.124;2022-09-13T08:56:10;1.30;;;1.20;;
7929;SDS011;4010;42.698;23.124;2022-09-13T08:58:51;1.40;;;1.30;;
7929;SDS011;4010;42.698;23.124;2022-09-13T09:01:36;1.63;;;1.53;;
7929;SDS011;4010;42.698;23.124;2022-09-13T09:04:14;1.47;;;1.37;;
7929;SDS011;4010;42.698;23.124;2022-09-13T09:06:59;1.50;;;1.40;;
7929;SDS011;4010;42.698;23.124;2022-09-13T09:09:30;1.07;;;1.00;;
7929;SDS011;4010;42.698;23.124;2022-09-13T09:12:05;1.87;;;1.33;;
7929;SDS011;4010;42.698;23.124;2022-09-13T09:14:41;1.60;;;1.20;;
7929;SDS011;4010;42.698;23.124;2022-09-13T09:17:13;1.50;;;1.40;;
7929;SDS011;4010;42.698;23.124;2022-09-13T09:19:45;0.97;;;0.97;;
7929;SDS011;4010;42.698;23.124;2022-09-13T09:22:18;1.03;;;1.03;;
7929;SDS011;4010;42.698;23.124;2022-09-13T09:24:46;1.07;;;0.97;;
7929;SDS011;4010;42.698;23.124;2022-09-13T09:27:18;1.37;;;1.27;;
7929;SDS011;4010;42.698;23.124;2022-09-13T09:29:46;1.53;;;1.43;;
7929;SDS011;4010;42.698;23.124;2022-09-13T09:32:22;1.70;;;1.27;;
7929;SDS011;4010;42.698;23.124;2022-09-13T09:35:05;1.20;;;1.10;;
7929;SDS011;4010;42.698;23.124;2022-09-13T09:37:40;1.40;;;1.30;;
7929;SDS011;4010;42.698;23.124;2022-09-13T09:40:11;1.30;;;1.20;;
7929;SDS011;4010;42.698;23.124;2022-09-13T09:42:43;1.30;;;1.20;;
7929;SDS011;4010;42.698;23.124;2022-09-13T09:45:22;0.83;;;0.83;;
7929;SDS011;4010;42.698;23.124;2022-09-13T09:47:51;1.70;;;1.50;;
7929;SDS011;4010;42.698;23.124;2022-09-13T09:50:20;1.37;;;1.27;;
7929;SDS011;4010;42.698;23.124;2022-09-13T09:52:51;1.30;;;1.20;;
7929;SDS011;4010;42.698;23.124;2022-09-13T09:55:26;1.30;;;1.20;;
7929;SDS011;4010;42.698;23.124;2022-09-13T09:57:56;1.03;;;1.00;;
7929;SDS011;4010;42.698;23.124;2022-09-13T10:00:25;1.20;;;1.10;;
7929;SDS011;4010;42.698;23.124;2022-09-13T10:02:55;1.00;;;1.00;;
7929;SDS011;4010;42.698;23.124;2022-09-13T10:05:25;0.90;;;0.90;;
7929;SDS011;4010;42.698;23.124;2022-09-13T10:07:54;1.37;;;1.10;;
7929;SDS011;4010;42.698;23.124;2022-09-13T10:10:24;1.00;;;1.00;;
7929;SDS011;4010;42.698;23.124;2022-09-13T10:12:56;1.57;;;1.30;;
7929;SDS011;4010;42.698;23.124;2022-09-13T10:15:25;1.27;;;1.17;;
7929;SDS011;4010;42.698;23.124;2022-09-13T10:17:59;0.90;;;0.90;;
7929;SDS011;4010;42.698;23.124;2022-09-13T10:20:31;1.17;;;1.07;;
7929;SDS011;4010;42.698;23.124;2022-09-13T10:23:09;2.10;;;1.43;;
7929;SDS011;4010;42.698;23.124;2022-09-13T10:25:42;4.33;;;1.17;;
7929;SDS011;4010;42.698;23.124;2022-09-13T10:28:13;1.27;;;1.17;;
7929;SDS011;4010;42.698;23.124;2022-09-13T10:30:45;0.97;;;0.93;;
7929;SDS011;4010;42.698;23.124;2022-09-13T10:33:22;0.90;;;0.90;;
7929;SDS011;4010;42.698;23.124;2022-09-13T10:35:52;1.27;;;1.17;;
7929;SDS011;4010;42.698;23.124;2022-09-13T10:38:23;1.13;;;1.10;;
7929;SDS011;4010;42.698;23.124;2022-09-13T10:40:54;1.20;;;1.10;;
7929;SDS011;4010;42.698;23.124;2022-09-13T10:43:22;0.93;;;0.93;;
7929;SDS011;4010;42.698;23.124;2022-09-13T10:45:52;1.00;;;1.00;;
7929;SDS011;4010;42.698;23.124;2022-09-13T10:48:19;1.33;;;1.07;;
7929;SDS011;4010;42.698;23.124;2022-09-13T10:51:00;1.20;;;1.10;;
7929;SDS011;4010;42.698;23.124;2022-09-13T10:53:33;0.80;;;0.80;;
7929;SDS011;4010;42.698;23.124;2022-09-13T10:56:02;1.20;;;1.10;;
7929;SDS011;4010;42.698;23.124;2022-09-13T10:58:30;1.03;;;1.00;;
7929;SDS011;4010;42.698;23.124;2022-09-13T11:01:04;1.00;;;1.00;;
7929;SDS011;4010;42.698;23.124;2022-09-13T11:06:36;1.30;;;1.20;;
7929;SDS011;4010;42.698;23.124;2022-09-13T11:09:10;0.93;;;0.90;;
7929;SDS011;4010;42.698;23.124;2022-09-13T11:11:41;1.30;;;1.20;;
7929;SDS011;4010;42.698;23.124;2022-09-13T11:14:21;1.13;;;1.07;;
7929;SDS011;4010;42.698;23.124;2022-09-13T11:17:11;0.90;;;0.90;;
7929;SDS011;4010;42.698;23.124;2022-09-13T11:19:48;1.00;;;1.00;;
7929;SDS011;4010;42.698;23.124;2022-09-13T11:22:28;0.90;;;0.90;;
7929;SDS011;4010;42.698;23.124;2022-09-13T11:25:03;0.90;;;0.90;;
7929;SDS011;4010;42.698;23.124;2022-09-13T11:27:41;1.23;;;1.13;;
7929;SDS011;4010;42.698;23.124;2022-09-13T11:30:18;1.13;;;1.00;;
7929;SDS011;4010;42.698;23.124;2022-09-13T11:32:59;1.20;;;1.10;;
7929;SDS011;4010;42.698;23.124;2022-09-13T11:35:43;1.00;;;1.00;;
7929;SDS011;4010;42.698;23.124;2022-09-13T11:38:25;1.10;;;1.03;;
7929;SDS011;4010;42.698;23.124;2022-09-13T11:41:04;1.70;;;1.40;;
7929;SDS011;4010;42.698;23.124;2022-09-13T11:43:46;0.97;;;0.97;;
7929;SDS011;4010;42.698;23.124;2022-09-13T11:46:30;0.90;;;0.90;;
7929;SDS011;4010;42.698;23.124;2022-09-13T11:52:31;1.17;;;1.07;;
7929;SDS011;4010;42.698;23.124;2022-09-13T11:55:11;1.37;;;1.27;;
7929;SDS011;4010;42.698;23.124;2022-09-13T11:57:43;1.57;;;1.33;;
7929;SDS011;4010;42.698;23.124;2022-09-13T12:00:15;1.43;;;1.20;;
7929;SDS011;4010;42.698;23.124;2022-09-13T12:02:49;0.93;;;0.93;;
7929;SDS011;4010;42.698;23.124;2022-09-13T12:05:23;1.17;;;1.07;;
7929;SDS011;4010;42.698;23.124;2022-09-13T12:07:56;1.20;;;1.20;;
7929;SDS011;4010;42.698;23.124;2022-09-13T12:10:28;0.77;;;0.77;;
7929;SDS011;4010;42.698;23.124;2022-09-13T12:12:57;0.90;;;0.90;;
7929;SDS011;4010;42.698;23.124;2022-09-13T12:15:28;1.60;;;1.10;;
7929;SDS011;4010;42.698;23.124;2022-09-13T12:18:05;1.40;;;1.30;;
7929;SDS011;4010;42.698;23.124;2022-09-13T12:20:37;1.03;;;0.97;;
7929;SDS011;4010;42.698;23.124;2022-09-13T12:23:10;1.20;;;1.10;;
7929;SDS011;4010;42.698;23.124;2022-09-13T12:25:42;0.90;;;0.90;;
7929;SDS011;4010;42.698;23.124;2022-09-13T12:28:16;0.83;;;0.83;;
7929;SDS011;4010;42.698;23.124;2022-09-13T12:30:49;1.20;;;0.80;;
7929;SDS011;4010;42.698;23.124;2022-09-13T12:33:23;1.33;;;1.20;;
7929;SDS011;4010;42.698;23.124;2022-09-13T12:35:59;1.00;;;1.00;;
7929;SDS011;4010;42.698;23.124;2022-09-13T12:41:45;1.00;;;0.97;;
7929;SDS011;4010;42.698;23.124;2022-09-13T12:44:29;1.50;;;1.40;;
7929;SDS011;4010;42.698;23.124;2022-09-13T12:47:23;1.40;;;1.30;;
7929;SDS011;4010;42.698;23.124;2022-09-13T12:50:06;2.53;;;2.03;;
7929;SDS011;4010;42.698;23.124;2022-09-13T12:52:58;1.50;;;1.40;;
7929;SDS011;4010;42.698;23.124;2022-09-13T12:55:42;1.00;;;1.00;;
7929;SDS011;4010;42.698;23.124;2022-09-13T12:58:32;1.40;;;1.30;;
7929;SDS011;4010;42.698;23.124;2022-09-13T13:01:08;0.93;;;0.93;;
7929;SDS011;4010;42.698;23.124;2022-09-13T13:03:44;1.27;;;1.20;;
7929;SDS011;4010;42.698;23.124;2022-09-13T13:06:23;1.20;;;1.10;;
7929;SDS011;4010;42.698;23.124;2022-09-13T13:08:55;1.30;;;1.20;;
7929;SDS011;4010;42.698;23.124;2022-09-13T13:11:23;1.10;;;1.10;;
7929;SDS011;4010;42.698;23.124;2022-09-13T13:13:52;1.60;;;1.30;;
7929;SDS011;4010;42.698;23.124;2022-09-13T13:16:23;1.30;;;1.20;;
7929;SDS011;4010;42.698;23.124;2022-09-13T13:18:54;1.30;;;1.20;;
7929;SDS011;4010;42.698;23.124;2022-09-13T13:21:28;1.50;;;1.30;;
7929;SDS011;4010;42.698;23.124;2022-09-13T13:27:00;1.50;;;1.40;;
7929;SDS011;4010;42.698;23.124;2022-09-13T13:29:45;1.47;;;1.27;;
7929;SDS011;4010;42.698;23.124;2022-09-13T13:33:11;1.43;;;1.33;;
7929;SDS011;4010;42.698;23.124;2022-09-13T13:35:41;1.70;;;1.60;;
7929;SDS011;4010;42.698;23.124;2022-09-13T13:41:04;1.47;;;1.37;;
7929;SDS011;4010;42.698;23.124;2022-09-13T13:43:33;1.60;;;1.50;;
7929;SDS011;4010;42.698;23.124;2022-09-13T13:48:55;1.40;;;1.30;;
7929;SDS011;4010;42.698;23.124;2022-09-13T13:51:42;1.43;;;1.33;;
7929;SDS011;4010;42.698;23.124;2022-09-13T13:57:00;1.40;;;1.27;;
7929;SDS011;4010;42.698;23.124;2022-09-13T13:59:29;1.37;;;1.27;;
7929;SDS011;4010;42.698;23.124;2022-09-13T14:01:58;1.70;;;1.60;;
7929;SDS011;4010;42.698;23.124;2022-09-13T14:04:45;1.40;;;1.30;;
7929;SDS011;4010;42.698;23.124;2022-09-13T14:07:25;1.50;;;1.40;;
7929;SDS011;4010;42.698;23.124;2022-09-13T14:10:08;1.67;;;1.50;;
7929;SDS011;4010;42.698;23.124;2022-09-13T14:12:46;1.40;;;1.20;;
7929;SDS011;4010;42.698;23.124;2022-09-13T14:15:29;1.30;;;1.20;;
7929;SDS011;4010;42.698;23.124;2022-09-13T14:18:22;1.30;;;1.20;;
7929;SDS011;4010;42.698;23.124;2022-09-13T14:21:18;1.40;;;1.30;;
7929;SDS011;4010;42.698;23.124;2022-09-13T14:23:47;1.63;;;1.53;;
7929;SDS011;4010;42.698;23.124;2022-09-13T14:26:15;2.63;;;1.50;;
7929;SDS011;4010;42.698;23.124;2022-09-13T14:28:42;1.73;;;1.63;;
7929;SDS011;4010;42.698;23.124;2022-09-13T14:31:13;1.80;;;1.40;;
7929;SDS011;4010;42.698;23.124;2022-09-13T14:33:43;1.53;;;1.43;;
7929;SDS011;4010;42.698;23.124;2022-09-13T14:36:15;1.73;;;1.60;;
7929;SDS011;4010;42.698;23.124;2022-09-13T14:38:47;1.47;;;1.37;;
7929;SDS011;4010;42.698;23.124;2022-09-13T14:41:17;1.30;;;1.20;;
7929;SDS011;4010;42.698;23.124;2022-09-13T14:43:46;1.40;;;1.30;;
7929;SDS011;4010;42.698;23.124;2022-09-13T14:46:15;1.70;;;1.60;;
7929;SDS011;4010;42.698;23.124;2022-09-13T14:48:47;1.50;;;1.40;;
7929;SDS011;4010;42.698;23.124;2022-09-13T14:51:18;1.23;;;1.13;;
7929;SDS011;4010;42.698;23.124;2022-09-13T14:53:48;1.60;;;1.50;;
7929;SDS011;4010;42.698;23.124;2022-09-13T14:56:22;1.40;;;1.30;;
7929;SDS011;4010;42.698;23.124;2022-09-13T14:58:57;1.30;;;1.20;;
7929;SDS011;4010;42.698;23.124;2022-09-13T15:01:27;2.47;;;1.33;;
7929;SDS011;4010;42.698;23.124;2022-09-13T15:03:57;1.37;;;1.27;;
7929;SDS011;4010;42.698;23.124;2022-09-13T15:06:27;1.60;;;1.50;;
7929;SDS011;4010;42.698;23.124;2022-09-13T15:08:56;1.50;;;1.40;;
7929;SDS011;4010;42.698;23.124;2022-09-13T15:11:28;1.40;;;1.30;;
7929;SDS011;4010;42.698;23.124;2022-09-13T15:14:01;1.73;;;1.50;;
7929;SDS011;4010;42.698;23.124;2022-09-13T15:16:34;1.40;;;1.30;;
7929;SDS011;4010;42.698;23.124;2022-09-13T15:19:25;1.40;;;1.30;;
7929;SDS011;4010;42.698;23.124;2022-09-13T15:22:00;1.83;;;1.73;;
7929;SDS011;4010;42.698;23.124;2022-09-13T15:24:30;1.50;;;1.40;;
7929;SDS011;4010;42.698;23.124;2022-09-13T15:27:05;1.60;;;1.50;;
7929;SDS011;4010;42.698;23.124;2022-09-13T15:29:33;1.40;;;1.30;;
7929;SDS011;4010;42.698;23.124;2022-09-13T15:32:02;1.60;;;1.50;;
7929;SDS011;4010;42.698;23.124;2022-09-13T15:34:29;1.70;;;1.43;;
7929;SDS011;4010;42.698;23.124;2022-09-13T15:39:41;1.67;;;1.57;;
7929;SDS011;4010;42.698;23.124;2022-09-13T15:42:11;1.70;;;1.60;;
7929;SDS011;4010;42.698;23.124;2022-09-13T15:44:37;1.50;;;1.40;;
7929;SDS011;4010;42.698;23.124;2022-09-13T15:47:07;1.60;;;1.50;;
7929;SDS011;4010;42.698;23.124;2022-09-13T15:49:35;1.70;;;1.60;;
7929;SDS011;4010;42.698;23.124;2022-09-13T15:52:04;1.50;;;1.40;;
7929;SDS011;4010;42.698;23.124;2022-09-13T15:54:32;1.70;;;1.60;;
7929;SDS011;4010;42.698;23.124;2022-09-13T15:57:00;1.50;;;1.40;;
7929;SDS011;4010;42.698;23.124;2022-09-13T15:59:28;1.90;;;1.73;;